Mega Trust — DSQH4 — position and weather

sailwx.info

Track history (hours):
 
Tides and Currents Weather Stations Pressure Air Temp Water Temp Dewpoint Dewpoint Depression Visibility Wind Speed Wind Dir Waves Ship Positions

Mega Trust

Last reported at 2018-Feb-22 13:23 UTC. Time now 2018-Feb-22 15:18 UTC.
Position N 50°11' W 001°52'.

Length 147 m; draft 5.3 m.

Type: Other ship. MMSI: 441577000.

Date/timePositionNaut miles runAvg speedWind from/ knotsBaromVisibWave heightAir tempDewpointWater temp
2018-Feb-22 13:23N 50°11' W 001°52'3 7.4
2018-Feb-22 13:00N 50°12' W 001°48'4 7.0
2018-Feb-22 12:28N 50°13' W 001°42'3 6.9
2018-Feb-22 12:00N 50°14' W 001°37'3 6.9
2018-Feb-22 11:30N 50°15' W 001°32'4 7.2
2018-Feb-22 10:59N 50°16' W 001°26'4110.1
2018-Feb-22 06:59N 50°26' W 000°25'611.6
2018-Feb-22 06:29N 50°28' W 000°16'611.4
2018-Feb-22 05:58N 50°30' W 000°07'511.3
2018-Feb-22 05:30N 50°31' E 000°01'611.2
2018-Feb-22 05:00N 50°33' E 000°09'511.0
2018-Feb-22 04:31N 50°34' E 000°17'510.7
2018-Feb-22 04:00N 50°35' E 000°26'510.2
2018-Feb-22 03:30N 50°36' E 000°33'5 9.7
2018-Feb-22 03:01N 50°39' E 000°40'5 9.7
2018-Feb-22 02:30N 50°42' E 000°46'5 9.5
2018-Feb-22 02:00N 50°45' E 000°52'5 9.4
2018-Feb-22 01:31N 50°48' E 000°57'5 9.7
2018-Feb-22 01:00N 50°51' E 001°03'610.5
2018-Feb-22 00:25N 50°56' E 001°10'511.1
2018-Feb-22 00:00N 50°59' E 001°16'612.4
2018-Feb-21 23:30N 51°02' E 001°24'713.1
2018-Feb-21 23:00N 51°06' E 001°32'713.4
2018-Feb-21 22:31N 51°11' E 001°40'612.3
2018-Feb-21 22:01N 51°15' E 001°47'611.6
2018-Feb-21 21:31N 51°20' E 001°51'510.7
2018-Feb-21 21:00N 51°25' E 001°54'5 9.9
2018-Feb-21 20:30N 51°30' E 001°58'5 9.6
2018-Feb-21 20:00N 51°33' E 002°04'5 9.2
2018-Feb-21 19:30N 51°36' E 002°09'4 8.8
2018-Feb-21 19:00N 51°39' E 002°13'  
2018-Feb-19 11:16N 59°53' E 004°35'3 9.2
2018-Feb-19 11:00N 59°54' E 004°39'4 8.8
2018-Feb-19 10:30N 59°57' E 004°46'4 8.5
2018-Feb-19 10:00N 59°59' E 004°53'4 8.4
2018-Feb-19 09:30N 60°04' E 004°55'4 8.3
2018-Feb-19 08:59N 60°08' E 004°56'4 9.2
2018-Feb-19 08:30N 60°09' E 005°04'4 8.5
2018-Feb-19 08:00N 60°12' E 005°11'5 9.0
2018-Feb-19 07:30N 60°17' E 005°10'4 7.9
2018-Feb-19 07:00N 60°20' E 005°10'3 6.7
2018-Feb-19 06:30N 60°24' E 005°09'4 8.3
2018-Feb-19 06:00N 60°25' E 005°01'1 1.0
2018-Feb-19 05:30N 60°25' E 005°00'0 0.0
2018-Feb-19 05:00N 60°25' E 005°00'0 0.0
2018-Feb-19 04:30N 60°25' E 005°00'0 0.0
2018-Feb-19 04:00N 60°25' E 005°00'0 0.0
2018-Feb-19 03:30N 60°25' E 005°00'0 0.0
2018-Feb-19 03:00N 60°25' E 005°00'0 0.0
2018-Feb-19 02:30N 60°25' E 005°00'0 0.0
2018-Feb-19 02:00N 60°25' E 005°00'0 0.0
2018-Feb-19 01:30N 60°25' E 005°00'0 0.0
2018-Feb-19 01:00N 60°25' E 005°00'0 0.0
2018-Feb-19 00:30N 60°25' E 005°00'0 0.0
2018-Feb-19 00:00N 60°25' E 005°00'0 0.0
2018-Feb-18 23:30N 60°25' E 005°00'0 0.0
2018-Feb-18 23:00N 60°25' E 005°00'0 0.0
2018-Feb-18 22:30N 60°25' E 005°00'0 0.0
2018-Feb-18 22:00N 60°25' E 005°00'0 0.0
2018-Feb-18 21:27N 60°25' E 005°00'0 0.0
2018-Feb-18 21:00N 60°25' E 005°00'0 0.0
2018-Feb-18 20:30N 60°25' E 005°00'0 0.0
2018-Feb-18 20:00N 60°25' E 005°00'0 0.0
2018-Feb-18 19:30N 60°25' E 005°00'0 0.0
2018-Feb-18 19:00N 60°25' E 005°00'0 0.0
2018-Feb-18 18:30N 60°25' E 005°00'0 0.0
2018-Feb-18 18:00N 60°25' E 005°00'0 0.0
2018-Feb-18 17:30N 60°25' E 005°00'0 0.0
2018-Feb-18 17:00N 60°25' E 005°00'0 0.0
2018-Feb-18 16:30N 60°25' E 005°00'0 0.0
2018-Feb-18 16:00N 60°25' E 005°00'0 0.0
2018-Feb-18 15:30N 60°25' E 005°00'0 0.0
2018-Feb-18 15:00N 60°25' E 005°00'0 0.0
2018-Feb-18 14:30N 60°25' E 005°00'0 0.0
2018-Feb-18 14:00N 60°25' E 005°00'0 0.0
2018-Feb-18 13:30N 60°25' E 005°00'0 0.0
2018-Feb-18 13:00N 60°25' E 005°00'0 0.0
2018-Feb-18 12:30N 60°25' E 005°00'0 0.0
2018-Feb-18 12:00N 60°25' E 005°00'0 0.0
2018-Feb-18 11:30N 60°25' E 005°00'0 0.0
2018-Feb-18 11:00N 60°25' E 005°00'0 0.0
2018-Feb-18 10:30N 60°25' E 005°00'0 0.0
2018-Feb-18 10:00N 60°25' E 005°00'0 0.0
2018-Feb-18 09:30N 60°25' E 005°00'0 0.0
2018-Feb-18 09:00N 60°25' E 005°00'0 0.0
2018-Feb-18 08:30N 60°25' E 005°00'0 0.0
2018-Feb-18 07:57N 60°25' E 005°00'0 0.0
2018-Feb-18 07:30N 60°25' E 005°00'0 0.0
2018-Feb-18 07:00N 60°25' E 005°00'0 0.0
2018-Feb-18 06:30N 60°25' E 005°00'0 0.0
2018-Feb-18 06:00N 60°25' E 005°00'0 0.0
2018-Feb-18 05:30N 60°25' E 005°00'0 0.0
2018-Feb-18 05:00N 60°25' E 005°00'0 0.0
2018-Feb-18 04:30N 60°25' E 005°00'0 0.0
2018-Feb-18 04:00N 60°25' E 005°00'0 0.0
2018-Feb-18 03:30N 60°25' E 005°00'0 0.0
2018-Feb-18 03:00N 60°25' E 005°00'0 0.0
2018-Feb-18 02:30N 60°25' E 005°00'0 0.0
2018-Feb-18 02:00N 60°25' E 005°00'0 0.0
2018-Feb-18 01:30N 60°25' E 005°00'0 0.0
2018-Feb-18 01:00N 60°25' E 005°00'0 0.0
2018-Feb-18 00:30N 60°25' E 005°00'0 0.0
2018-Feb-18 00:00N 60°25' E 005°00'0 0.0
2018-Feb-17 23:30N 60°25' E 005°00'0 0.0
2018-Feb-17 23:00N 60°25' E 005°00'0 0.0
2018-Feb-17 22:30N 60°25' E 005°00'0 0.0
2018-Feb-17 22:00N 60°25' E 005°00'0 0.0
2018-Feb-17 21:30N 60°25' E 005°00'0 0.0
2018-Feb-17 21:00N 60°25' E 005°00'0 0.0
2018-Feb-17 20:30N 60°25' E 005°00'0 0.0
2018-Feb-17 20:00N 60°25' E 005°00'0 0.0
2018-Feb-17 19:30N 60°25' E 005°00'0 0.0
2018-Feb-17 19:00N 60°25' E 005°00'0 0.0
2018-Feb-17 18:30N 60°25' E 005°00'0 0.0
2018-Feb-17 18:00N 60°25' E 005°00'0 0.0
2018-Feb-17 17:27N 60°25' E 005°00'0 0.0
2018-Feb-17 16:18N 60°25' E 005°00'0 0.0
2018-Feb-17 16:00N 60°25' E 005°00'0 0.0
2018-Feb-17 15:30N 60°25' E 005°00'0 0.0
2018-Feb-17 15:00N 60°25' E 005°00'0 0.0
2018-Feb-17 14:30N 60°25' E 005°00'0 0.0
2018-Feb-17 14:00N 60°25' E 005°00'0 0.0
2018-Feb-17 13:30N 60°25' E 005°00'0 0.0
2018-Feb-17 13:00N 60°25' E 005°00'0 0.0
2018-Feb-17 12:30N 60°25' E 005°00'0 0.0
2018-Feb-17 12:00N 60°25' E 005°00'0 0.0
2018-Feb-17 11:27N 60°25' E 005°00'0 0.0
2018-Feb-17 11:00N 60°25' E 005°00'0 0.0
2018-Feb-17 10:30N 60°25' E 005°00'0 0.0
2018-Feb-17 10:00N 60°25' E 005°00'0 0.0
2018-Feb-17 09:30N 60°25' E 005°00'0 0.0
2018-Feb-17 09:00N 60°25' E 005°00'0 0.0
2018-Feb-17 08:30N 60°25' E 005°00'0 0.0
2018-Feb-17 08:00N 60°25' E 005°00'0 0.0
2018-Feb-17 07:30N 60°25' E 005°00'0 0.0
2018-Feb-17 06:57N 60°25' E 005°00'0 0.0
2018-Feb-17 06:30N 60°25' E 005°00'0 0.0
2018-Feb-17 06:00N 60°25' E 005°00'0 0.0
2018-Feb-17 05:30N 60°25' E 005°00'0 0.0
2018-Feb-17 05:00N 60°25' E 005°00'0 0.0
2018-Feb-17 04:30N 60°25' E 005°00'0 0.0
2018-Feb-17 04:00N 60°25' E 005°00'0 0.0
2018-Feb-17 03:30N 60°25' E 005°00'0 0.0
2018-Feb-17 03:00N 60°25' E 005°00'0 0.0
2018-Feb-17 02:30N 60°25' E 005°00'0 0.0
2018-Feb-17 02:00N 60°25' E 005°00'0 0.0
2018-Feb-17 01:30N 60°25' E 005°00'0 0.0
2018-Feb-17 01:00N 60°25' E 005°00'0 0.0
2018-Feb-17 00:30N 60°25' E 005°00'0 0.0
2018-Feb-17 00:00N 60°25' E 005°00'0 0.0
2018-Feb-16 23:30N 60°25' E 005°00'0 0.0
2018-Feb-16 23:00N 60°25' E 005°00'0 0.0
2018-Feb-16 22:30N 60°25' E 005°00'0 0.0
2018-Feb-16 22:00N 60°25' E 005°00'0 0.0
2018-Feb-16 21:30N 60°25' E 005°00'0 0.0
2018-Feb-16 21:00N 60°25' E 005°00'0 0.0
2018-Feb-16 20:30N 60°25' E 005°00'0 0.0
2018-Feb-16 20:00N 60°25' E 005°00'0 0.0
2018-Feb-16 19:30N 60°25' E 005°00'0 0.0
2018-Feb-16 19:00N 60°25' E 005°00'0 0.0
2018-Feb-16 18:30N 60°25' E 005°00'0 0.0
2018-Feb-16 18:00N 60°25' E 005°00'0 0.0
2018-Feb-16 17:30N 60°25' E 005°00'0 0.0
2018-Feb-16 17:00N 60°25' E 005°00'0 0.0
2018-Feb-16 16:30N 60°25' E 005°00'0 0.0
2018-Feb-16 16:00N 60°25' E 005°00'0 0.0
2018-Feb-16 15:30N 60°25' E 005°00'0 0.0
2018-Feb-16 15:00N 60°25' E 005°00'0 0.0
2018-Feb-16 14:30N 60°25' E 005°00'0 0.0
2018-Feb-16 14:00N 60°25' E 005°00'0 0.0
2018-Feb-16 13:30N 60°25' E 005°00'0 0.0
2018-Feb-16 13:00N 60°25' E 005°00'0 0.0
2018-Feb-16 12:30N 60°25' E 005°00'0 0.0
2018-Feb-16 12:00N 60°25' E 005°00'0 0.0
2018-Feb-16 11:30N 60°25' E 005°00'0 0.0
2018-Feb-16 11:00N 60°25' E 005°00'0 0.0
2018-Feb-16 09:39N 60°25' E 005°00'0 0.0
2018-Feb-16 09:30N 60°25' E 005°00'0 0.0
2018-Feb-16 09:00N 60°25' E 005°00'0 0.0
2018-Feb-16 08:30N 60°25' E 005°00'0 0.0
2018-Feb-16 08:00N 60°25' E 005°00'0 0.0
2018-Feb-16 07:30N 60°25' E 005°00'0 0.0
2018-Feb-16 07:00N 60°25' E 005°00'0 0.0
2018-Feb-16 05:57N 60°25' E 005°00'0 0.0
2018-Feb-16 05:30N 60°25' E 005°00'0 0.0
2018-Feb-16 05:00N 60°25' E 005°00'0 0.0
2018-Feb-16 04:30N 60°25' E 005°00'0 0.0
2018-Feb-16 04:00N 60°25' E 005°00'0 0.0
2018-Feb-16 03:30N 60°25' E 005°00'0 0.0
2018-Feb-16 03:00N 60°25' E 005°00'0 0.0
2018-Feb-16 02:30N 60°25' E 005°00'0 0.0
2018-Feb-16 02:00N 60°25' E 005°00'0 0.0
2018-Feb-16 01:30N 60°25' E 005°00'0 0.0
2018-Feb-16 01:00N 60°25' E 005°00'0 0.0
2018-Feb-16 00:30N 60°25' E 005°00'0 0.0
2018-Feb-15 23:57N 60°25' E 005°00'0 0.0
2018-Feb-15 23:30N 60°25' E 005°00'0 0.0
2018-Feb-15 23:00N 60°25' E 005°00'0 0.0
2018-Feb-15 22:30N 60°25' E 005°00'0 0.0
2018-Feb-15 22:00N 60°25' E 005°00'0 0.0
2018-Feb-15 21:30N 60°25' E 005°00'0 0.0
2018-Feb-15 21:00N 60°25' E 005°00'0 0.0
2018-Feb-15 20:30N 60°25' E 005°00'0 0.0
2018-Feb-15 20:00N 60°25' E 005°00'0 0.0
2018-Feb-15 19:30N 60°25' E 005°00'0 0.0
2018-Feb-15 19:00N 60°25' E 005°00'0 0.0
2018-Feb-15 18:30N 60°25' E 005°00'0 0.0
2018-Feb-15 18:00N 60°25' E 005°00'0 0.0
2018-Feb-15 17:30N 60°25' E 005°00'0 0.0
2018-Feb-15 17:00N 60°25' E 005°00'0 0.0
2018-Feb-15 16:30N 60°25' E 005°00'0 0.0
2018-Feb-15 16:00N 60°25' E 005°00'0 0.0
2018-Feb-15 15:30N 60°25' E 005°00'0 0.0
2018-Feb-15 15:00N 60°25' E 005°00'0 0.0
2018-Feb-15 14:30N 60°25' E 005°00'0 0.0
2018-Feb-15 14:00N 60°25' E 005°00'0 0.0
2018-Feb-15 13:30N 60°25' E 005°00'0 0.0
2018-Feb-15 13:00N 60°25' E 005°00'0 0.0
2018-Feb-15 12:30N 60°25' E 005°00'0 0.0
2018-Feb-15 12:00N 60°25' E 005°00'0 0.0
2018-Feb-15 11:30N 60°25' E 005°00'0 0.0
2018-Feb-15 11:00N 60°25' E 005°00'0 0.0
2018-Feb-15 10:30N 60°25' E 005°00'0 0.0
2018-Feb-15 10:00N 60°25' E 005°00'0 0.0
2018-Feb-15 09:30N 60°25' E 005°00'0 0.0
2018-Feb-15 09:00N 60°25' E 005°00'0 0.0
2018-Feb-15 08:30N 60°25' E 005°00'0 0.0
2018-Feb-15 08:00N 60°25' E 005°00'0 0.0
2018-Feb-15 07:30N 60°25' E 005°00'0 0.0
2018-Feb-15 07:00N 60°25' E 005°00'0 0.0
2018-Feb-15 06:30N 60°25' E 005°00'0 0.0
2018-Feb-15 06:00N 60°25' E 005°00'0 0.0
2018-Feb-15 05:30N 60°25' E 005°00'0 0.0
2018-Feb-15 05:00N 60°25' E 005°00'0 0.0
2018-Feb-15 04:30N 60°25' E 005°00'0 0.0
2018-Feb-15 04:00N 60°25' E 005°00'0 0.0
2018-Feb-15 03:30N 60°25' E 005°00'0 0.0
2018-Feb-15 02:57N 60°25' E 005°00'0 0.0
2018-Feb-15 02:30N 60°25' E 005°00'0 0.0
2018-Feb-15 02:00N 60°25' E 005°00'0 0.0
2018-Feb-15 01:30N 60°25' E 005°00'0 0.0
2018-Feb-15 00:57N 60°25' E 005°00'0 0.0
2018-Feb-15 00:30N 60°25' E 005°00'0 0.0
2018-Feb-15 00:00N 60°25' E 005°00'0 0.0
2018-Feb-14 23:30N 60°25' E 005°00'0 0.0
2018-Feb-14 23:00N 60°25' E 005°00'0 0.0
2018-Feb-14 22:30N 60°25' E 005°00'0 0.0
2018-Feb-14 22:00N 60°25' E 005°00'0 0.0
2018-Feb-14 21:30N 60°25' E 005°00'0 0.0
2018-Feb-14 21:00N 60°25' E 005°00'0 0.0
2018-Feb-14 20:30N 60°25' E 005°00'0 0.0
2018-Feb-14 20:00N 60°25' E 005°00'0 0.0
2018-Feb-14 19:30N 60°25' E 005°00'0 0.0
2018-Feb-14 19:00N 60°25' E 005°00'0 0.0
2018-Feb-14 18:30N 60°25' E 005°00'0 0.0
2018-Feb-14 18:00N 60°25' E 005°00'0 0.0
2018-Feb-14 17:30N 60°25' E 005°00'0 0.0
2018-Feb-14 17:00N 60°25' E 005°00'0 0.0
2018-Feb-14 16:30N 60°25' E 005°00'0 0.0
2018-Feb-14 16:00N 60°25' E 005°00'0 0.0
2018-Feb-14 14:39N 60°25' E 005°00'0 0.0
2018-Feb-14 14:30N 60°25' E 005°00'0 0.0
2018-Feb-14 13:59N 60°25' E 005°00'0 0.0
2018-Feb-14 12:53N 60°25' E 005°00'0 0.0
2018-Feb-14 12:30N 60°25' E 005°00'0 0.0
2018-Feb-14 12:00N 60°25' E 005°00'0 0.0
2018-Feb-14 11:30N 60°25' E 005°00'0 0.0
2018-Feb-14 11:00N 60°25' E 005°00'0 0.0
2018-Feb-14 09:39N 60°25' E 005°00'0 0.0
2018-Feb-14 09:30N 60°25' E 005°00'0 0.0
2018-Feb-14 09:00N 60°25' E 005°00'0 0.0
2018-Feb-14 07:54N 60°25' E 005°00'0 0.0
2018-Feb-14 07:30N 60°25' E 005°00'0 0.0
2018-Feb-14 07:00N 60°25' E 005°00'0 0.0
2018-Feb-14 06:30N 60°25' E 005°00'0 0.0
2018-Feb-14 06:00N 60°25' E 005°00'0 0.0
2018-Feb-14 05:30N 60°25' E 005°00'0 0.0
2018-Feb-14 05:00N 60°25' E 005°00'0 0.0
2018-Feb-14 03:51N 60°25' E 005°00'0 0.0
2018-Feb-14 03:30N 60°25' E 005°00'0 0.0
2018-Feb-14 03:00N 60°25' E 005°00'0 0.0
2018-Feb-14 02:30N 60°25' E 005°00'0 0.0
2018-Feb-14 02:00N 60°25' E 005°00'0 0.0
2018-Feb-14 01:30N 60°25' E 005°00'0 0.0
2018-Feb-14 01:00N 60°25' E 005°00'0 0.0
2018-Feb-14 00:30N 60°25' E 005°00'0 0.0
2018-Feb-14 00:00N 60°25' E 005°00'0 0.0
2018-Feb-13 23:30N 60°25' E 005°00'0 0.0
2018-Feb-13 23:00N 60°25' E 005°00'0 0.0
2018-Feb-13 21:42N 60°25' E 005°00'0 0.0
2018-Feb-13 21:30N 60°25' E 005°00'0 0.0
2018-Feb-13 21:00N 60°25' E 005°00'0 0.0
2018-Feb-13 20:30N 60°25' E 005°00'0 0.0
2018-Feb-13 20:00N 60°25' E 005°00'0 0.0
2018-Feb-13 19:30N 60°25' E 005°00'0 0.0
2018-Feb-13 19:00N 60°25' E 005°00'0 0.0
2018-Feb-13 18:30N 60°25' E 005°00'0 0.0
2018-Feb-13 18:00N 60°25' E 005°00'0 0.0
2018-Feb-13 17:30N 60°25' E 005°00'0 0.0
2018-Feb-13 17:00N 60°25' E 005°00'0 0.0
2018-Feb-13 16:30N 60°25' E 005°00'0 0.0
2018-Feb-13 16:00N 60°25' E 005°00'0 0.0
2018-Feb-13 15:30N 60°25' E 005°00'0 0.0
2018-Feb-13 15:00N 60°25' E 005°00'0 0.0
2018-Feb-13 14:30N 60°25' E 005°00'0 0.0
2018-Feb-13 14:00N 60°25' E 005°00'0 0.0
2018-Feb-13 12:45N 60°25' E 005°00'0 0.0
2018-Feb-13 11:57N 60°25' E 005°00'0 0.0
2018-Feb-13 11:15N 60°25' E 005°00'0 0.0
2018-Feb-13 11:00N 60°25' E 005°00'0 0.0
2018-Feb-13 10:30N 60°25' E 005°00'0 0.0
2018-Feb-13 10:00N 60°25' E 005°00'0 0.0
2018-Feb-13 09:30N 60°25' E 005°00'0 0.0
2018-Feb-13 09:00N 60°25' E 005°00'0 0.0
2018-Feb-13 08:30N 60°25' E 005°00'0 0.0
2018-Feb-13 08:00N 60°25' E 005°00'0 0.0
2018-Feb-13 07:30N 60°25' E 005°00'0 0.0
2018-Feb-13 06:21N 60°25' E 005°00'0 0.0
2018-Feb-13 06:00N 60°25' E 005°00'0 0.0
2018-Feb-13 05:30N 60°25' E 005°00'0 0.0
2018-Feb-13 04:03N 60°25' E 005°00'0 0.0
2018-Feb-13 04:00N 60°25' E 005°00'0 0.0
2018-Feb-13 03:30N 60°25' E 005°00'0 0.0
2018-Feb-13 02:57N 60°25' E 005°00'0 0.0
2018-Feb-13 02:30N 60°25' E 005°00'0 0.0
2018-Feb-13 01:24N 60°25' E 005°00'0 0.0
2018-Feb-13 01:00N 60°25' E 005°00'0 0.0
2018-Feb-12 23:37N 60°25' E 005°00'0 0.0
2018-Feb-12 23:30N 60°25' E 005°00'0 0.0
2018-Feb-12 23:00N 60°25' E 005°00'0 0.0
2018-Feb-12 22:30N 60°25' E 005°00'0 0.0
2018-Feb-12 22:00N 60°25' E 005°00'0 0.0
2018-Feb-12 21:30N 60°25' E 005°00'0 0.0
2018-Feb-12 21:00N 60°25' E 005°00'0 0.0
2018-Feb-12 20:30N 60°25' E 005°00'0 0.0
2018-Feb-12 20:00N 60°25' E 005°00'0 0.0
2018-Feb-12 19:30N 60°25' E 005°00'0 0.0
2018-Feb-12 19:00N 60°25' E 005°00'0 0.0
2018-Feb-12 18:30N 60°25' E 005°00'0 0.0
2018-Feb-12 18:00N 60°25' E 005°00'0 0.0
2018-Feb-12 16:30N 60°25' E 005°00'0 0.0
2018-Feb-12 16:00N 60°25' E 005°00'0 0.0
2018-Feb-12 15:30N 60°25' E 005°00'0 0.0
2018-Feb-12 14:18N 60°25' E 005°00'0 0.0
2018-Feb-12 14:00N 60°25' E 005°00'0 0.0
2018-Feb-12 13:30N 60°25' E 005°00'  
Track history (hours):
 
Tides and Currents Weather Stations Pressure Air Temp Water Temp Dewpoint Dewpoint Depression Visibility Wind Speed Wind Dir Waves Ship Positions

Mega Trust

Last reported at 2018-Feb-22 13:23 UTC. Time now 2018-Feb-22 15:18 UTC.
Position N 50°11' W 001°52'.

Length 147 m; draft 5.3 m.

Type: Other ship. MMSI: 441577000.

Date/timePositionNaut miles runAvg speedWind from/ knotsBaromVisibWave heightAir tempDewpointWater temp
2018-Feb-22 13:23N 50°11' W 001°52'3 7.4
2018-Feb-22 13:00N 50°12' W 001°48'4 7.0
2018-Feb-22 12:28N 50°13' W 001°42'3 6.9
2018-Feb-22 12:00N 50°14' W 001°37'3 6.9
2018-Feb-22 11:30N 50°15' W 001°32'4 7.2
2018-Feb-22 10:59N 50°16' W 001°26'4110.1
2018-Feb-22 06:59N 50°26' W 000°25'611.6
2018-Feb-22 06:29N 50°28' W 000°16'611.4
2018-Feb-22 05:58N 50°30' W 000°07'511.3
2018-Feb-22 05:30N 50°31' E 000°01'611.2
2018-Feb-22 05:00N 50°33' E 000°09'511.0
2018-Feb-22 04:31N 50°34' E 000°17'510.7
2018-Feb-22 04:00N 50°35' E 000°26'510.2
2018-Feb-22 03:30N 50°36' E 000°33'5 9.7
2018-Feb-22 03:01N 50°39' E 000°40'5 9.7
2018-Feb-22 02:30N 50°42' E 000°46'5 9.5
2018-Feb-22 02:00N 50°45' E 000°52'5 9.4
2018-Feb-22 01:31N 50°48' E 000°57'5 9.7
2018-Feb-22 01:00N 50°51' E 001°03'610.5
2018-Feb-22 00:25N 50°56' E 001°10'511.1
2018-Feb-22 00:00N 50°59' E 001°16'612.4
2018-Feb-21 23:30N 51°02' E 001°24'713.1
2018-Feb-21 23:00N 51°06' E 001°32'713.4
2018-Feb-21 22:31N 51°11' E 001°40'612.3
2018-Feb-21 22:01N 51°15' E 001°47'611.6
2018-Feb-21 21:31N 51°20' E 001°51'510.7
2018-Feb-21 21:00N 51°25' E 001°54'5 9.9
2018-Feb-21 20:30N 51°30' E 001°58'5 9.6
2018-Feb-21 20:00N 51°33' E 002°04'5 9.2
2018-Feb-21 19:30N 51°36' E 002°09'4 8.8
2018-Feb-21 19:00N 51°39' E 002°13'  
2018-Feb-19 11:16N 59°53' E 004°35'3 9.2
2018-Feb-19 11:00N 59°54' E 004°39'4 8.8
2018-Feb-19 10:30N 59°57' E 004°46'4 8.5
2018-Feb-19 10:00N 59°59' E 004°53'4 8.4
2018-Feb-19 09:30N 60°04' E 004°55'4 8.3
2018-Feb-19 08:59N 60°08' E 004°56'4 9.2
2018-Feb-19 08:30N 60°09' E 005°04'4 8.5
2018-Feb-19 08:00N 60°12' E 005°11'5 9.0
2018-Feb-19 07:30N 60°17' E 005°10'4 7.9
2018-Feb-19 07:00N 60°20' E 005°10'3 6.7
2018-Feb-19 06:30N 60°24' E 005°09'4 8.3
2018-Feb-19 06:00N 60°25' E 005°01'1 1.0
2018-Feb-19 05:30N 60°25' E 005°00'0 0.0
2018-Feb-19 05:00N 60°25' E 005°00'0 0.0
2018-Feb-19 04:30N 60°25' E 005°00'0 0.0
2018-Feb-19 04:00N 60°25' E 005°00'0 0.0
2018-Feb-19 03:30N 60°25' E 005°00'0 0.0
2018-Feb-19 03:00N 60°25' E 005°00'0 0.0
2018-Feb-19 02:30N 60°25' E 005°00'0 0.0
2018-Feb-19 02:00N 60°25' E 005°00'0 0.0
2018-Feb-19 01:30N 60°25' E 005°00'0 0.0
2018-Feb-19 01:00N 60°25' E 005°00'0 0.0
2018-Feb-19 00:30N 60°25' E 005°00'0 0.0
2018-Feb-19 00:00N 60°25' E 005°00'0 0.0
2018-Feb-18 23:30N 60°25' E 005°00'0 0.0
2018-Feb-18 23:00N 60°25' E 005°00'0 0.0
2018-Feb-18 22:30N 60°25' E 005°00'0 0.0
2018-Feb-18 22:00N 60°25' E 005°00'0 0.0
2018-Feb-18 21:27N 60°25' E 005°00'0 0.0
2018-Feb-18 21:00N 60°25' E 005°00'0 0.0
2018-Feb-18 20:30N 60°25' E 005°00'0 0.0
2018-Feb-18 20:00N 60°25' E 005°00'0 0.0
2018-Feb-18 19:30N 60°25' E 005°00'0 0.0
2018-Feb-18 19:00N 60°25' E 005°00'0 0.0
2018-Feb-18 18:30N 60°25' E 005°00'0 0.0
2018-Feb-18 18:00N 60°25' E 005°00'0 0.0
2018-Feb-18 17:30N 60°25' E 005°00'0 0.0
2018-Feb-18 17:00N 60°25' E 005°00'0 0.0
2018-Feb-18 16:30N 60°25' E 005°00'0 0.0
2018-Feb-18 16:00N 60°25' E 005°00'0 0.0
2018-Feb-18 15:30N 60°25' E 005°00'0 0.0
2018-Feb-18 15:00N 60°25' E 005°00'0 0.0
2018-Feb-18 14:30N 60°25' E 005°00'0 0.0
2018-Feb-18 14:00N 60°25' E 005°00'0 0.0
2018-Feb-18 13:30N 60°25' E 005°00'0 0.0
2018-Feb-18 13:00N 60°25' E 005°00'0 0.0
2018-Feb-18 12:30N 60°25' E 005°00'0 0.0
2018-Feb-18 12:00N 60°25' E 005°00'0 0.0
2018-Feb-18 11:30N 60°25' E 005°00'0 0.0
2018-Feb-18 11:00N 60°25' E 005°00'0 0.0
2018-Feb-18 10:30N 60°25' E 005°00'0 0.0
2018-Feb-18 10:00N 60°25' E 005°00'0 0.0
2018-Feb-18 09:30N 60°25' E 005°00'0 0.0
2018-Feb-18 09:00N 60°25' E 005°00'0 0.0
2018-Feb-18 08:30N 60°25' E 005°00'0 0.0
2018-Feb-18 07:57N 60°25' E 005°00'0 0.0
2018-Feb-18 07:30N 60°25' E 005°00'0 0.0
2018-Feb-18 07:00N 60°25' E 005°00'0 0.0
2018-Feb-18 06:30N 60°25' E 005°00'0 0.0
2018-Feb-18 06:00N 60°25' E 005°00'0 0.0
2018-Feb-18 05:30N 60°25' E 005°00'0 0.0
2018-Feb-18 05:00N 60°25' E 005°00'0 0.0
2018-Feb-18 04:30N 60°25' E 005°00'0 0.0
2018-Feb-18 04:00N 60°25' E 005°00'0 0.0
2018-Feb-18 03:30N 60°25' E 005°00'0 0.0
2018-Feb-18 03:00N 60°25' E 005°00'0 0.0
2018-Feb-18 02:30N 60°25' E 005°00'0 0.0
2018-Feb-18 02:00N 60°25' E 005°00'0 0.0
2018-Feb-18 01:30N 60°25' E 005°00'0 0.0
2018-Feb-18 01:00N 60°25' E 005°00'0 0.0
2018-Feb-18 00:30N 60°25' E 005°00'0 0.0
2018-Feb-18 00:00N 60°25' E 005°00'0 0.0
2018-Feb-17 23:30N 60°25' E 005°00'0 0.0
2018-Feb-17 23:00N 60°25' E 005°00'0 0.0
2018-Feb-17 22:30N 60°25' E 005°00'0 0.0
2018-Feb-17 22:00N 60°25' E 005°00'0 0.0
2018-Feb-17 21:30N 60°25' E 005°00'0 0.0
2018-Feb-17 21:00N 60°25' E 005°00'0 0.0
2018-Feb-17 20:30N 60°25' E 005°00'0 0.0
2018-Feb-17 20:00N 60°25' E 005°00'0 0.0
2018-Feb-17 19:30N 60°25' E 005°00'0 0.0
2018-Feb-17 19:00N 60°25' E 005°00'0 0.0
2018-Feb-17 18:30N 60°25' E 005°00'0 0.0
2018-Feb-17 18:00N 60°25' E 005°00'0 0.0
2018-Feb-17 17:27N 60°25' E 005°00'0 0.0
2018-Feb-17 16:18N 60°25' E 005°00'0 0.0
2018-Feb-17 16:00N 60°25' E 005°00'0 0.0
2018-Feb-17 15:30N 60°25' E 005°00'0 0.0
2018-Feb-17 15:00N 60°25' E 005°00'0 0.0
2018-Feb-17 14:30N 60°25' E 005°00'0 0.0
2018-Feb-17 14:00N 60°25' E 005°00'0 0.0
2018-Feb-17 13:30N 60°25' E 005°00'0 0.0
2018-Feb-17 13:00N 60°25' E 005°00'0 0.0
2018-Feb-17 12:30N 60°25' E 005°00'0 0.0
2018-Feb-17 12:00N 60°25' E 005°00'0 0.0
2018-Feb-17 11:27N 60°25' E 005°00'0 0.0
2018-Feb-17 11:00N 60°25' E 005°00'0 0.0
2018-Feb-17 10:30N 60°25' E 005°00'0 0.0
2018-Feb-17 10:00N 60°25' E 005°00'0 0.0
2018-Feb-17 09:30N 60°25' E 005°00'0 0.0
2018-Feb-17 09:00N 60°25' E 005°00'0 0.0
2018-Feb-17 08:30N 60°25' E 005°00'0 0.0
2018-Feb-17 08:00N 60°25' E 005°00'0 0.0
2018-Feb-17 07:30N 60°25' E 005°00'0 0.0
2018-Feb-17 06:57N 60°25' E 005°00'0 0.0
2018-Feb-17 06:30N 60°25' E 005°00'0 0.0
2018-Feb-17 06:00N 60°25' E 005°00'0 0.0
2018-Feb-17 05:30N 60°25' E 005°00'0 0.0
2018-Feb-17 05:00N 60°25' E 005°00'0 0.0
2018-Feb-17 04:30N 60°25' E 005°00'0 0.0
2018-Feb-17 04:00N 60°25' E 005°00'0 0.0
2018-Feb-17 03:30N 60°25' E 005°00'0 0.0
2018-Feb-17 03:00N 60°25' E 005°00'0 0.0
2018-Feb-17 02:30N 60°25' E 005°00'0 0.0
2018-Feb-17 02:00N 60°25' E 005°00'0 0.0
2018-Feb-17 01:30N 60°25' E 005°00'0 0.0
2018-Feb-17 01:00N 60°25' E 005°00'0 0.0
2018-Feb-17 00:30N 60°25' E 005°00'0 0.0
2018-Feb-17 00:00N 60°25' E 005°00'0 0.0
2018-Feb-16 23:30N 60°25' E 005°00'0 0.0
2018-Feb-16 23:00N 60°25' E 005°00'0 0.0
2018-Feb-16 22:30N 60°25' E 005°00'0 0.0
2018-Feb-16 22:00N 60°25' E 005°00'0 0.0
2018-Feb-16 21:30N 60°25' E 005°00'0 0.0
2018-Feb-16 21:00N 60°25' E 005°00'0 0.0
2018-Feb-16 20:30N 60°25' E 005°00'0 0.0
2018-Feb-16 20:00N 60°25' E 005°00'0 0.0
2018-Feb-16 19:30N 60°25' E 005°00'0 0.0
2018-Feb-16 19:00N 60°25' E 005°00'0 0.0
2018-Feb-16 18:30N 60°25' E 005°00'0 0.0
2018-Feb-16 18:00N 60°25' E 005°00'0 0.0
2018-Feb-16 17:30N 60°25' E 005°00'0 0.0
2018-Feb-16 17:00N 60°25' E 005°00'0 0.0
2018-Feb-16 16:30N 60°25' E 005°00'0 0.0
2018-Feb-16 16:00N 60°25' E 005°00'0 0.0
2018-Feb-16 15:30N 60°25' E 005°00'0 0.0
2018-Feb-16 15:00N 60°25' E 005°00'0 0.0
2018-Feb-16 14:30N 60°25' E 005°00'0 0.0
2018-Feb-16 14:00N 60°25' E 005°00'0 0.0
2018-Feb-16 13:30N 60°25' E 005°00'0 0.0
2018-Feb-16 13:00N 60°25' E 005°00'0 0.0
2018-Feb-16 12:30N 60°25' E 005°00'0 0.0
2018-Feb-16 12:00N 60°25' E 005°00'0 0.0
2018-Feb-16 11:30N 60°25' E 005°00'0 0.0
2018-Feb-16 11:00N 60°25' E 005°00'0 0.0
2018-Feb-16 09:39N 60°25' E 005°00'0 0.0
2018-Feb-16 09:30N 60°25' E 005°00'0 0.0
2018-Feb-16 09:00N 60°25' E 005°00'0 0.0
2018-Feb-16 08:30N 60°25' E 005°00'0 0.0
2018-Feb-16 08:00N 60°25' E 005°00'0 0.0
2018-Feb-16 07:30N 60°25' E 005°00'0 0.0
2018-Feb-16 07:00N 60°25' E 005°00'0 0.0
2018-Feb-16 05:57N 60°25' E 005°00'0 0.0
2018-Feb-16 05:30N 60°25' E 005°00'0 0.0
2018-Feb-16 05:00N 60°25' E 005°00'0 0.0
2018-Feb-16 04:30N 60°25' E 005°00'0 0.0
2018-Feb-16 04:00N 60°25' E 005°00'0 0.0
2018-Feb-16 03:30N 60°25' E 005°00'0 0.0
2018-Feb-16 03:00N 60°25' E 005°00'0 0.0
2018-Feb-16 02:30N 60°25' E 005°00'0 0.0
2018-Feb-16 02:00N 60°25' E 005°00'0 0.0
2018-Feb-16 01:30N 60°25' E 005°00'0 0.0
2018-Feb-16 01:00N 60°25' E 005°00'0 0.0
2018-Feb-16 00:30N 60°25' E 005°00'0 0.0
2018-Feb-15 23:57N 60°25' E 005°00'0 0.0
2018-Feb-15 23:30N 60°25' E 005°00'0 0.0
2018-Feb-15 23:00N 60°25' E 005°00'0 0.0
2018-Feb-15 22:30N 60°25' E 005°00'0 0.0
2018-Feb-15 22:00N 60°25' E 005°00'0 0.0
2018-Feb-15 21:30N 60°25' E 005°00'0 0.0
2018-Feb-15 21:00N 60°25' E 005°00'0 0.0
2018-Feb-15 20:30N 60°25' E 005°00'0 0.0
2018-Feb-15 20:00N 60°25' E 005°00'0 0.0
2018-Feb-15 19:30N 60°25' E 005°00'0 0.0
2018-Feb-15 19:00N 60°25' E 005°00'0 0.0
2018-Feb-15 18:30N 60°25' E 005°00'0 0.0
2018-Feb-15 18:00N 60°25' E 005°00'0 0.0
2018-Feb-15 17:30N 60°25' E 005°00'0 0.0
2018-Feb-15 17:00N 60°25' E 005°00'0 0.0
2018-Feb-15 16:30N 60°25' E 005°00'0 0.0
2018-Feb-15 16:00N 60°25' E 005°00'0 0.0
2018-Feb-15 15:30N 60°25' E 005°00'0 0.0
2018-Feb-15 15:00N 60°25' E 005°00'0 0.0
2018-Feb-15 14:30N 60°25' E 005°00'0 0.0
2018-Feb-15 14:00N 60°25' E 005°00'0 0.0
2018-Feb-15 13:30N 60°25' E 005°00'0 0.0
2018-Feb-15 13:00N 60°25' E 005°00'0 0.0
2018-Feb-15 12:30N 60°25' E 005°00'0 0.0
2018-Feb-15 12:00N 60°25' E 005°00'0 0.0
2018-Feb-15 11:30N 60°25' E 005°00'0 0.0
2018-Feb-15 11:00N 60°25' E 005°00'0 0.0
2018-Feb-15 10:30N 60°25' E 005°00'0 0.0
2018-Feb-15 10:00N 60°25' E 005°00'0 0.0
2018-Feb-15 09:30N 60°25' E 005°00'0 0.0
2018-Feb-15 09:00N 60°25' E 005°00'0 0.0
2018-Feb-15 08:30N 60°25' E 005°00'0 0.0
2018-Feb-15 08:00N 60°25' E 005°00'0 0.0
2018-Feb-15 07:30N 60°25' E 005°00'0 0.0
2018-Feb-15 07:00N 60°25' E 005°00'0 0.0
2018-Feb-15 06:30N 60°25' E 005°00'0 0.0
2018-Feb-15 06:00N 60°25' E 005°00'0 0.0
2018-Feb-15 05:30N 60°25' E 005°00'0 0.0
2018-Feb-15 05:00N 60°25' E 005°00'0 0.0
2018-Feb-15 04:30N 60°25' E 005°00'0 0.0
2018-Feb-15 04:00N 60°25' E 005°00'0 0.0
2018-Feb-15 03:30N 60°25' E 005°00'0 0.0
2018-Feb-15 02:57N 60°25' E 005°00'0 0.0
2018-Feb-15 02:30N 60°25' E 005°00'0 0.0
2018-Feb-15 02:00N 60°25' E 005°00'0 0.0
2018-Feb-15 01:30N 60°25' E 005°00'0 0.0
2018-Feb-15 00:57N 60°25' E 005°00'0 0.0
2018-Feb-15 00:30N 60°25' E 005°00'0 0.0
2018-Feb-15 00:00N 60°25' E 005°00'0 0.0
2018-Feb-14 23:30N 60°25' E 005°00'0 0.0
2018-Feb-14 23:00N 60°25' E 005°00'0 0.0
2018-Feb-14 22:30N 60°25' E 005°00'0 0.0
2018-Feb-14 22:00N 60°25' E 005°00'0 0.0
2018-Feb-14 21:30N 60°25' E 005°00'0 0.0
2018-Feb-14 21:00N 60°25' E 005°00'0 0.0
2018-Feb-14 20:30N 60°25' E 005°00'0 0.0
2018-Feb-14 20:00N 60°25' E 005°00'0 0.0
2018-Feb-14 19:30N 60°25' E 005°00'0 0.0
2018-Feb-14 19:00N 60°25' E 005°00'0 0.0
2018-Feb-14 18:30N 60°25' E 005°00'0 0.0
2018-Feb-14 18:00N 60°25' E 005°00'0 0.0
2018-Feb-14 17:30N 60°25' E 005°00'0 0.0
2018-Feb-14 17:00N 60°25' E 005°00'0 0.0
2018-Feb-14 16:30N 60°25' E 005°00'0 0.0
2018-Feb-14 16:00N 60°25' E 005°00'0 0.0
2018-Feb-14 14:39N 60°25' E 005°00'0 0.0
2018-Feb-14 14:30N 60°25' E 005°00'0 0.0
2018-Feb-14 13:59N 60°25' E 005°00'0 0.0
2018-Feb-14 12:53N 60°25' E 005°00'0 0.0
2018-Feb-14 12:30N 60°25' E 005°00'0 0.0
2018-Feb-14 12:00N 60°25' E 005°00'0 0.0
2018-Feb-14 11:30N 60°25' E 005°00'0 0.0
2018-Feb-14 11:00N 60°25' E 005°00'0 0.0
2018-Feb-14 09:39N 60°25' E 005°00'0 0.0
2018-Feb-14 09:30N 60°25' E 005°00'0 0.0
2018-Feb-14 09:00N 60°25' E 005°00'0 0.0
2018-Feb-14 07:54N 60°25' E 005°00'0 0.0
2018-Feb-14 07:30N 60°25' E 005°00'0 0.0
2018-Feb-14 07:00N 60°25' E 005°00'0 0.0
2018-Feb-14 06:30N 60°25' E 005°00'0 0.0
2018-Feb-14 06:00N 60°25' E 005°00'0 0.0
2018-Feb-14 05:30N 60°25' E 005°00'0 0.0
2018-Feb-14 05:00N 60°25' E 005°00'0 0.0
2018-Feb-14 03:51N 60°25' E 005°00'0 0.0
2018-Feb-14 03:30N 60°25' E 005°00'0 0.0
2018-Feb-14 03:00N 60°25' E 005°00'0 0.0
2018-Feb-14 02:30N 60°25' E 005°00'0 0.0
2018-Feb-14 02:00N 60°25' E 005°00'0 0.0
2018-Feb-14 01:30N 60°25' E 005°00'0 0.0
2018-Feb-14 01:00N 60°25' E 005°00'0 0.0
2018-Feb-14 00:30N 60°25' E 005°00'0 0.0
2018-Feb-14 00:00N 60°25' E 005°00'0 0.0
2018-Feb-13 23:30N 60°25' E 005°00'0 0.0
2018-Feb-13 23:00N 60°25' E 005°00'0 0.0
2018-Feb-13 21:42N 60°25' E 005°00'0 0.0
2018-Feb-13 21:30N 60°25' E 005°00'0 0.0
2018-Feb-13 21:00N 60°25' E 005°00'0 0.0
2018-Feb-13 20:30N 60°25' E 005°00'0 0.0
2018-Feb-13 20:00N 60°25' E 005°00'0 0.0
2018-Feb-13 19:30N 60°25' E 005°00'0 0.0
2018-Feb-13 19:00N 60°25' E 005°00'0 0.0
2018-Feb-13 18:30N 60°25' E 005°00'0 0.0
2018-Feb-13 18:00N 60°25' E 005°00'0 0.0
2018-Feb-13 17:30N 60°25' E 005°00'0 0.0
2018-Feb-13 17:00N 60°25' E 005°00'0 0.0
2018-Feb-13 16:30N 60°25' E 005°00'0 0.0
2018-Feb-13 16:00N 60°25' E 005°00'0 0.0
2018-Feb-13 15:30N 60°25' E 005°00'0 0.0
2018-Feb-13 15:00N 60°25' E 005°00'0 0.0
2018-Feb-13 14:30N 60°25' E 005°00'0 0.0
2018-Feb-13 14:00N 60°25' E 005°00'0 0.0
2018-Feb-13 12:45N 60°25' E 005°00'0 0.0
2018-Feb-13 11:57N 60°25' E 005°00'0 0.0
2018-Feb-13 11:15N 60°25' E 005°00'0 0.0
2018-Feb-13 11:00N 60°25' E 005°00'0 0.0
2018-Feb-13 10:30N 60°25' E 005°00'0 0.0
2018-Feb-13 10:00N 60°25' E 005°00'0 0.0
2018-Feb-13 09:30N 60°25' E 005°00'0 0.0
2018-Feb-13 09:00N 60°25' E 005°00'0 0.0
2018-Feb-13 08:30N 60°25' E 005°00'0 0.0
2018-Feb-13 08:00N 60°25' E 005°00'0 0.0
2018-Feb-13 07:30N 60°25' E 005°00'0 0.0
2018-Feb-13 06:21N 60°25' E 005°00'0 0.0
2018-Feb-13 06:00N 60°25' E 005°00'0 0.0
2018-Feb-13 05:30N 60°25' E 005°00'0 0.0
2018-Feb-13 04:03N 60°25' E 005°00'0 0.0
2018-Feb-13 04:00N 60°25' E 005°00'0 0.0
2018-Feb-13 03:30N 60°25' E 005°00'0 0.0
2018-Feb-13 02:57N 60°25' E 005°00'0 0.0
2018-Feb-13 02:30N 60°25' E 005°00'0 0.0
2018-Feb-13 01:24N 60°25' E 005°00'0 0.0
2018-Feb-13 01:00N 60°25' E 005°00'0 0.0
2018-Feb-12 23:37N 60°25' E 005°00'0 0.0
2018-Feb-12 23:30N 60°25' E 005°00'0 0.0
2018-Feb-12 23:00N 60°25' E 005°00'0 0.0
2018-Feb-12 22:30N 60°25' E 005°00'0 0.0
2018-Feb-12 22:00N 60°25' E 005°00'0 0.0
2018-Feb-12 21:30N 60°25' E 005°00'0 0.0
2018-Feb-12 21:00N 60°25' E 005°00'0 0.0
2018-Feb-12 20:30N 60°25' E 005°00'0 0.0
2018-Feb-12 20:00N 60°25' E 005°00'0 0.0
2018-Feb-12 19:30N 60°25' E 005°00'0 0.0
2018-Feb-12 19:00N 60°25' E 005°00'0 0.0
2018-Feb-12 18:30N 60°25' E 005°00'0 0.0
2018-Feb-12 18:00N 60°25' E 005°00'0 0.0
2018-Feb-12 16:30N 60°25' E 005°00'0 0.0
2018-Feb-12 16:00N 60°25' E 005°00'0 0.0
2018-Feb-12 15:30N 60°25' E 005°00'0 0.0
2018-Feb-12 14:18N 60°25' E 005°00'0 0.0
2018-Feb-12 14:00N 60°25' E 005°00'0 0.0
2018-Feb-12 13:30N 60°25' E 005°00'  

Dump ship's entire track history